sensor_id;sensor_type;location;lat;lon;timestamp;temperature;humidity
9564;DHT22;4820;50.870;4.702;2023-09-07T00:01:50;20.60;99.90
9564;DHT22;4820;50.870;4.702;2023-09-07T00:04:19;20.50;99.90
9564;DHT22;4820;50.870;4.702;2023-09-07T00:06:45;20.50;99.90
9564;DHT22;4820;50.870;4.702;2023-09-07T00:09:11;20.40;99.90
9564;DHT22;4820;50.870;4.702;2023-09-07T00:11:38;20.20;99.90
9564;DHT22;4820;50.870;4.702;2023-09-07T00:14:04;20.20;99.90
9564;DHT22;4820;50.870;4.702;2023-09-07T00:16:33;20.20;99.90
9564;DHT22;4820;50.870;4.702;2023-09-07T00:19:01;20.20;99.90
9564;DHT22;4820;50.870;4.702;2023-09-07T00:21:28;20.20;99.90
9564;DHT22;4820;50.870;4.702;2023-09-07T00:23:54;20.20;99.90
9564;DHT22;4820;50.870;4.702;2023-09-07T00:26:20;20.20;99.90
9564;DHT22;4820;50.870;4.702;2023-09-07T00:28:46;20.10;99.90
9564;DHT22;4820;50.870;4.702;2023-09-07T00:31:13;20.10;99.90
9564;DHT22;4820;50.870;4.702;2023-09-07T00:33:38;20.10;99.90
9564;DHT22;4820;50.870;4.702;2023-09-07T00:36:05;20.00;99.90
9564;DHT22;4820;50.870;4.702;2023-09-07T00:38:30;20.00;99.90
9564;DHT22;4820;50.870;4.702;2023-09-07T00:40:56;20.00;99.90
9564;DHT22;4820;50.870;4.702;2023-09-07T00:43:23;20.00;99.90
9564;DHT22;4820;50.870;4.702;2023-09-07T00:45:49;19.90;99.90
9564;DHT22;4820;50.870;4.702;2023-09-07T00:48:16;19.90;99.90
9564;DHT22;4820;50.870;4.702;2023-09-07T00:50:42;19.90;99.90
9564;DHT22;4820;50.870;4.702;2023-09-07T00:53:10;19.80;99.90
9564;DHT22;4820;50.870;4.702;2023-09-07T00:55:37;19.80;99.90
9564;DHT22;4820;50.870;4.702;2023-09-07T00:58:04;19.70;99.90
9564;DHT22;4820;50.870;4.702;2023-09-07T01:00:30;19.70;99.90
9564;DHT22;4820;50.870;4.702;2023-09-07T01:02:57;19.70;99.90
9564;DHT22;4820;50.870;4.702;2023-09-07T01:06:13;19.70;99.90
9564;DHT22;4820;50.870;4.702;2023-09-07T01:08:25;19.60;99.90
9564;DHT22;4820;50.870;4.702;2023-09-07T01:10:52;19.60;99.90
9564;DHT22;4820;50.870;4.702;2023-09-07T01:13:19;19.60;99.90
9564;DHT22;4820;50.870;4.702;2023-09-07T01:15:45;19.60;99.90
9564;DHT22;4820;50.870;4.702;2023-09-07T01:18:12;19.50;99.90
9564;DHT22;4820;50.870;4.702;2023-09-07T01:20:40;19.50;99.90
9564;DHT22;4820;50.870;4.702;2023-09-07T01:23:07;19.40;99.90
9564;DHT22;4820;50.870;4.702;2023-09-07T01:25:34;19.40;99.90
9564;DHT22;4820;50.870;4.702;2023-09-07T01:28:00;19.30;99.90
9564;DHT22;4820;50.870;4.702;2023-09-07T01:30:29;19.30;99.90
9564;DHT22;4820;50.870;4.702;2023-09-07T01:32:54;19.30;99.90
9564;DHT22;4820;50.870;4.702;2023-09-07T01:35:21;19.30;99.90
9564;DHT22;4820;50.870;4.702;2023-09-07T01:37:48;19.30;99.90
9564;DHT22;4820;50.870;4.702;2023-09-07T01:40:14;19.20;99.90
9564;DHT22;4820;50.870;4.702;2023-09-07T01:42:40;19.30;99.90
9564;DHT22;4820;50.870;4.702;2023-09-07T01:45:06;19.20;99.90
9564;DHT22;4820;50.870;4.702;2023-09-07T01:47:32;19.20;99.90
9564;DHT22;4820;50.870;4.702;2023-09-07T01:49:58;19.20;99.90
9564;DHT22;4820;50.870;4.702;2023-09-07T01:52:24;19.20;99.90
9564;DHT22;4820;50.870;4.702;2023-09-07T01:54:49;19.20;99.90
9564;DHT22;4820;50.870;4.702;2023-09-07T01:57:16;19.20;99.90
9564;DHT22;4820;50.870;4.702;2023-09-07T01:59:41;19.20;99.90
9564;DHT22;4820;50.870;4.702;2023-09-07T02:02:07;19.10;99.90
9564;DHT22;4820;50.870;4.702;2023-09-07T02:04:33;19.10;99.90
9564;DHT22;4820;50.870;4.702;2023-09-07T02:06:59;19.00;99.90
9564;DHT22;4820;50.870;4.702;2023-09-07T02:09:24;19.00;99.90
9564;DHT22;4820;50.870;4.702;2023-09-07T02:11:50;19.00;99.90
9564;DHT22;4820;50.870;4.702;2023-09-07T02:14:16;18.90;99.90
9564;DHT22;4820;50.870;4.702;2023-09-07T02:16:42;18.90;99.90
9564;DHT22;4820;50.870;4.702;2023-09-07T02:19:08;18.90;99.90
9564;DHT22;4820;50.870;4.702;2023-09-07T02:21:34;18.90;99.90
9564;DHT22;4820;50.870;4.702;2023-09-07T02:24:00;18.90;99.90
9564;DHT22;4820;50.870;4.702;2023-09-07T02:26:26;18.90;99.90
9564;DHT22;4820;50.870;4.702;2023-09-07T02:28:51;18.80;99.90
9564;DHT22;4820;50.870;4.702;2023-09-07T02:31:17;18.80;99.90
9564;DHT22;4820;50.870;4.702;2023-09-07T02:33:43;18.80;99.90
9564;DHT22;4820;50.870;4.702;2023-09-07T02:36:09;18.80;99.90
9564;DHT22;4820;50.870;4.702;2023-09-07T02:38:35;18.80;99.90
9564;DHT22;4820;50.870;4.702;2023-09-07T02:41:01;18.80;99.90
9564;DHT22;4820;50.870;4.702;2023-09-07T02:43:29;18.80;99.90
9564;DHT22;4820;50.870;4.702;2023-09-07T02:45:55;18.70;99.90
9564;DHT22;4820;50.870;4.702;2023-09-07T02:48:21;18.70;99.90
9564;DHT22;4820;50.870;4.702;2023-09-07T02:50:48;18.70;99.90
9564;DHT22;4820;50.870;4.702;2023-09-07T02:53:16;18.70;99.90
9564;DHT22;4820;50.870;4.702;2023-09-07T02:55:42;18.60;99.90
9564;DHT22;4820;50.870;4.702;2023-09-07T02:58:08;18.60;99.90
9564;DHT22;4820;50.870;4.702;2023-09-07T03:00:34;18.60;99.90
9564;DHT22;4820;50.870;4.702;2023-09-07T03:03:00;18.60;99.90
9564;DHT22;4820;50.870;4.702;2023-09-07T03:05:30;18.60;99.90
9564;DHT22;4820;50.870;4.702;2023-09-07T03:07:56;18.60;99.90
9564;DHT22;4820;50.870;4.702;2023-09-07T03:10:21;18.60;99.90
9564;DHT22;4820;50.870;4.702;2023-09-07T03:12:47;18.50;99.90
9564;DHT22;4820;50.870;4.702;2023-09-07T03:15:13;18.50;99.90
9564;DHT22;4820;50.870;4.702;2023-09-07T03:17:39;18.50;99.90
9564;DHT22;4820;50.870;4.702;2023-09-07T03:20:05;18.40;99.90
9564;DHT22;4820;50.870;4.702;2023-09-07T03:22:41;18.40;99.90
9564;DHT22;4820;50.870;4.702;2023-09-07T03:25:08;18.40;99.90
9564;DHT22;4820;50.870;4.702;2023-09-07T03:27:35;18.30;99.90
9564;DHT22;4820;50.870;4.702;2023-09-07T03:30:01;18.30;99.90
9564;DHT22;4820;50.870;4.702;2023-09-07T03:32:29;18.30;99.90
9564;DHT22;4820;50.870;4.702;2023-09-07T03:35:03;18.30;99.90
9564;DHT22;4820;50.870;4.702;2023-09-07T03:37:32;18.30;99.90
9564;DHT22;4820;50.870;4.702;2023-09-07T03:39:58;18.30;99.90
9564;DHT22;4820;50.870;4.702;2023-09-07T03:42:24;18.30;99.90
9564;DHT22;4820;50.870;4.702;2023-09-07T03:44:50;18.20;99.90
9564;DHT22;4820;50.870;4.702;2023-09-07T03:47:15;18.20;99.90
9564;DHT22;4820;50.870;4.702;2023-09-07T03:49:43;18.20;99.90
9564;DHT22;4820;50.870;4.702;2023-09-07T03:52:10;18.20;99.90
9564;DHT22;4820;50.870;4.702;2023-09-07T03:54:38;18.20;99.90
9564;DHT22;4820;50.870;4.702;2023-09-07T03:57:04;18.20;99.90
9564;DHT22;4820;50.870;4.702;2023-09-07T03:59:32;18.20;99.90
9564;DHT22;4820;50.870;4.702;2023-09-07T04:01:57;18.10;99.90
9564;DHT22;4820;50.870;4.702;2023-09-07T04:04:23;18.10;99.90
9564;DHT22;4820;50.870;4.702;2023-09-07T04:06:49;18.10;99.90
9564;DHT22;4820;50.870;4.702;2023-09-07T04:09:15;18.10;99.90
9564;DHT22;4820;50.870;4.702;2023-09-07T04:11:42;18.10;99.90
9564;DHT22;4820;50.870;4.702;2023-09-07T04:14:08;18.10;99.90
9564;DHT22;4820;50.870;4.702;2023-09-07T04:16:34;18.10;99.90
9564;DHT22;4820;50.870;4.702;2023-09-07T04:19:00;18.10;99.90
9564;DHT22;4820;50.870;4.702;2023-09-07T04:21:29;18.00;99.90
9564;DHT22;4820;50.870;4.702;2023-09-07T04:23:54;18.00;99.90
9564;DHT22;4820;50.870;4.702;2023-09-07T04:26:20;18.00;99.90
9564;DHT22;4820;50.870;4.702;2023-09-07T04:28:47;18.00;99.90
9564;DHT22;4820;50.870;4.702;2023-09-07T04:31:12;17.90;99.90
9564;DHT22;4820;50.870;4.702;2023-09-07T04:33:38;17.90;99.90
9564;DHT22;4820;50.870;4.702;2023-09-07T04:36:11;17.90;99.90
9564;DHT22;4820;50.870;4.702;2023-09-07T04:38:39;17.90;99.90
9564;DHT22;4820;50.870;4.702;2023-09-07T04:41:12;17.90;99.90
9564;DHT22;4820;50.870;4.702;2023-09-07T04:43:40;17.80;99.90
9564;DHT22;4820;50.870;4.702;2023-09-07T04:46:06;17.80;99.90
9564;DHT22;4820;50.870;4.702;2023-09-07T04:48:33;17.80;99.90
9564;DHT22;4820;50.870;4.702;2023-09-07T04:51:05;17.70;99.90
9564;DHT22;4820;50.870;4.702;2023-09-07T04:53:33;17.70;99.90
9564;DHT22;4820;50.870;4.702;2023-09-07T04:56:00;17.70;99.90
9564;DHT22;4820;50.870;4.702;2023-09-07T04:58:27;17.70;99.90
9564;DHT22;4820;50.870;4.702;2023-09-07T05:00:53;17.70;99.90
9564;DHT22;4820;50.870;4.702;2023-09-07T05:03:19;17.60;99.90
9564;DHT22;4820;50.870;4.702;2023-09-07T05:05:50;17.60;99.90
9564;DHT22;4820;50.870;4.702;2023-09-07T05:08:16;17.60;99.90
9564;DHT22;4820;50.870;4.702;2023-09-07T05:10:41;17.50;99.90
9564;DHT22;4820;50.870;4.702;2023-09-07T05:13:08;17.60;99.90
9564;DHT22;4820;50.870;4.702;2023-09-07T05:15:34;17.50;99.90
9564;DHT22;4820;50.870;4.702;2023-09-07T05:17:59;17.50;99.90
9564;DHT22;4820;50.870;4.702;2023-09-07T05:20:25;17.50;99.90
9564;DHT22;4820;50.870;4.702;2023-09-07T05:22:52;17.60;99.90
9564;DHT22;4820;50.870;4.702;2023-09-07T05:25:18;17.50;99.90
9564;DHT22;4820;50.870;4.702;2023-09-07T05:27:45;17.60;99.90
9564;DHT22;4820;50.870;4.702;2023-09-07T05:30:12;17.60;99.90
9564;DHT22;4820;50.870;4.702;2023-09-07T05:32:38;17.60;99.90
9564;DHT22;4820;50.870;4.702;2023-09-07T05:35:05;17.60;99.90
9564;DHT22;4820;50.870;4.702;2023-09-07T05:37:32;17.50;99.90
9564;DHT22;4820;50.870;4.702;2023-09-07T05:39:58;17.60;99.90
9564;DHT22;4820;50.870;4.702;2023-09-07T05:42:24;17.60;99.90
9564;DHT22;4820;50.870;4.702;2023-09-07T05:44:51;17.70;99.90
9564;DHT22;4820;50.870;4.702;2023-09-07T05:47:17;17.70;99.90
9564;DHT22;4820;50.870;4.702;2023-09-07T05:49:43;17.70;99.90
9564;DHT22;4820;50.870;4.702;2023-09-07T05:52:09;17.70;99.90
9564;DHT22;4820;50.870;4.702;2023-09-07T05:54:34;17.70;99.90
9564;DHT22;4820;50.870;4.702;2023-09-07T05:57:00;17.70;99.90
9564;DHT22;4820;50.870;4.702;2023-09-07T05:59:26;17.80;99.90
9564;DHT22;4820;50.870;4.702;2023-09-07T06:01:52;17.90;99.90
9564;DHT22;4820;50.870;4.702;2023-09-07T06:04:18;17.90;99.90
9564;DHT22;4820;50.870;4.702;2023-09-07T06:06:43;18.00;99.90
9564;DHT22;4820;50.870;4.702;2023-09-07T06:09:11;18.00;99.90
9564;DHT22;4820;50.870;4.702;2023-09-07T06:11:37;18.10;99.90
9564;DHT22;4820;50.870;4.702;2023-09-07T06:14:03;18.10;99.90
9564;DHT22;4820;50.870;4.702;2023-09-07T06:16:29;18.20;99.90
9564;DHT22;4820;50.870;4.702;2023-09-07T06:18:55;18.20;99.90
9564;DHT22;4820;50.870;4.702;2023-09-07T06:21:21;18.30;99.90
9564;DHT22;4820;50.870;4.702;2023-09-07T06:23:46;18.30;99.90
9564;DHT22;4820;50.870;4.702;2023-09-07T06:26:13;18.30;99.90
9564;DHT22;4820;50.870;4.702;2023-09-07T06:28:39;18.40;99.90
9564;DHT22;4820;50.870;4.702;2023-09-07T06:31:05;18.50;99.90
9564;DHT22;4820;50.870;4.702;2023-09-07T06:33:31;18.50;99.90
9564;DHT22;4820;50.870;4.702;2023-09-07T06:35:56;18.60;99.90
9564;DHT22;4820;50.870;4.702;2023-09-07T06:38:26;18.60;99.90
9564;DHT22;4820;50.870;4.702;2023-09-07T06:40:52;18.70;99.90
9564;DHT22;4820;50.870;4.702;2023-09-07T06:43:18;18.70;99.90
9564;DHT22;4820;50.870;4.702;2023-09-07T06:45:44;18.80;99.90
9564;DHT22;4820;50.870;4.702;2023-09-07T06:48:09;18.80;99.90
9564;DHT22;4820;50.870;4.702;2023-09-07T06:50:35;18.90;99.90
9564;DHT22;4820;50.870;4.702;2023-09-07T06:53:01;19.00;99.90
9564;DHT22;4820;50.870;4.702;2023-09-07T06:55:28;19.10;99.90
9564;DHT22;4820;50.870;4.702;2023-09-07T06:57:54;19.10;99.90
9564;DHT22;4820;50.870;4.702;2023-09-07T07:00:21;19.20;99.90
9564;DHT22;4820;50.870;4.702;2023-09-07T07:02:47;19.30;99.90
9564;DHT22;4820;50.870;4.702;2023-09-07T07:05:13;19.40;99.90
9564;DHT22;4820;50.870;4.702;2023-09-07T07:07:39;19.50;99.90
9564;DHT22;4820;50.870;4.702;2023-09-07T07:10:06;19.50;99.90
9564;DHT22;4820;50.870;4.702;2023-09-07T07:12:32;19.60;99.90
9564;DHT22;4820;50.870;4.702;2023-09-07T07:15:02;19.70;99.90
9564;DHT22;4820;50.870;4.702;2023-09-07T07:17:28;19.70;99.90
9564;DHT22;4820;50.870;4.702;2023-09-07T07:19:54;19.80;99.90
9564;DHT22;4820;50.870;4.702;2023-09-07T07:22:20;19.90;99.90
9564;DHT22;4820;50.870;4.702;2023-09-07T07:24:46;20.00;99.90
9564;DHT22;4820;50.870;4.702;2023-09-07T07:27:12;20.10;99.90
9564;DHT22;4820;50.870;4.702;2023-09-07T07:29:38;20.20;99.90
9564;DHT22;4820;50.870;4.702;2023-09-07T07:32:05;20.30;99.90
9564;DHT22;4820;50.870;4.702;2023-09-07T07:34:32;20.40;99.90
9564;DHT22;4820;50.870;4.702;2023-09-07T07:36:58;20.40;99.90
9564;DHT22;4820;50.870;4.702;2023-09-07T07:39:23;20.50;99.90
9564;DHT22;4820;50.870;4.702;2023-09-07T07:41:49;20.50;99.90
9564;DHT22;4820;50.870;4.702;2023-09-07T07:44:15;20.70;99.90
9564;DHT22;4820;50.870;4.702;2023-09-07T07:46:41;20.80;99.90
9564;DHT22;4820;50.870;4.702;2023-09-07T07:49:10;20.90;99.90
9564;DHT22;4820;50.870;4.702;2023-09-07T07:51:36;21.00;99.90
9564;DHT22;4820;50.870;4.702;2023-09-07T07:54:02;21.10;99.90
9564;DHT22;4820;50.870;4.702;2023-09-07T07:56:28;21.20;99.90
9564;DHT22;4820;50.870;4.702;2023-09-07T07:58:54;21.30;99.90
9564;DHT22;4820;50.870;4.702;2023-09-07T08:01:20;21.30;99.90
9564;DHT22;4820;50.870;4.702;2023-09-07T08:03:46;21.40;99.90
9564;DHT22;4820;50.870;4.702;2023-09-07T08:06:12;21.50;99.90
9564;DHT22;4820;50.870;4.702;2023-09-07T08:08:39;21.60;99.90
9564;DHT22;4820;50.870;4.702;2023-09-07T08:11:05;21.60;99.90
9564;DHT22;4820;50.870;4.702;2023-09-07T08:13:32;21.70;99.90
9564;DHT22;4820;50.870;4.702;2023-09-07T08:16:00;21.80;99.90
9564;DHT22;4820;50.870;4.702;2023-09-07T08:18:26;21.80;99.90
9564;DHT22;4820;50.870;4.702;2023-09-07T08:20:52;22.00;99.90
9564;DHT22;4820;50.870;4.702;2023-09-07T08:23:19;22.10;99.90
9564;DHT22;4820;50.870;4.702;2023-09-07T08:25:47;22.20;99.90
9564;DHT22;4820;50.870;4.702;2023-09-07T08:28:13;22.20;99.90
9564;DHT22;4820;50.870;4.702;2023-09-07T08:30:39;22.30;99.90
9564;DHT22;4820;50.870;4.702;2023-09-07T08:33:05;22.40;99.90
9564;DHT22;4820;50.870;4.702;2023-09-07T08:35:33;22.50;99.90
9564;DHT22;4820;50.870;4.702;2023-09-07T08:38:01;22.50;99.90
9564;DHT22;4820;50.870;4.702;2023-09-07T08:40:30;22.60;99.90
9564;DHT22;4820;50.870;4.702;2023-09-07T08:43:01;22.70;99.90
9564;DHT22;4820;50.870;4.702;2023-09-07T08:45:29;22.80;99.90
9564;DHT22;4820;50.870;4.702;2023-09-07T08:47:58;22.90;99.90
9564;DHT22;4820;50.870;4.702;2023-09-07T08:50:24;23.10;99.90
9564;DHT22;4820;50.870;4.702;2023-09-07T08:52:52;23.20;99.90
9564;DHT22;4820;50.870;4.702;2023-09-07T08:55:19;23.40;99.90
9564;DHT22;4820;50.870;4.702;2023-09-07T08:57:46;23.50;99.90
9564;DHT22;4820;50.870;4.702;2023-09-07T09:00:13;23.70;99.90
9564;DHT22;4820;50.870;4.702;2023-09-07T09:02:42;23.70;99.90
9564;DHT22;4820;50.870;4.702;2023-09-07T09:05:09;23.90;99.90
9564;DHT22;4820;50.870;4.702;2023-09-07T09:07:37;23.90;99.90
9564;DHT22;4820;50.870;4.702;2023-09-07T09:10:12;24.00;99.90
9564;DHT22;4820;50.870;4.702;2023-09-07T09:12:45;24.10;99.90
9564;DHT22;4820;50.870;4.702;2023-09-07T09:15:12;24.30;99.90
9564;DHT22;4820;50.870;4.702;2023-09-07T09:17:38;24.30;99.90
9564;DHT22;4820;50.870;4.702;2023-09-07T09:20:04;24.50;99.90
9564;DHT22;4820;50.870;4.702;2023-09-07T09:22:35;24.60;99.90
9564;DHT22;4820;50.870;4.702;2023-09-07T09:25:04;24.70;99.90
9564;DHT22;4820;50.870;4.702;2023-09-07T09:27:30;24.80;99.90
9564;DHT22;4820;50.870;4.702;2023-09-07T09:29:56;24.90;99.90
9564;DHT22;4820;50.870;4.702;2023-09-07T09:32:24;24.90;99.90
9564;DHT22;4820;50.870;4.702;2023-09-07T09:34:50;24.90;99.90
9564;DHT22;4820;50.870;4.702;2023-09-07T09:37:16;25.00;99.90
9564;DHT22;4820;50.870;4.702;2023-09-07T09:39:42;25.10;99.90
9564;DHT22;4820;50.870;4.702;2023-09-07T09:42:09;25.20;99.90
9564;DHT22;4820;50.870;4.702;2023-09-07T09:44:36;25.30;99.90
9564;DHT22;4820;50.870;4.702;2023-09-07T09:47:03;25.50;99.90
9564;DHT22;4820;50.870;4.702;2023-09-07T09:49:29;25.50;99.90
9564;DHT22;4820;50.870;4.702;2023-09-07T09:51:56;25.60;99.90
9564;DHT22;4820;50.870;4.702;2023-09-07T09:54:24;25.60;99.90
9564;DHT22;4820;50.870;4.702;2023-09-07T09:56:51;25.70;99.90
9564;DHT22;4820;50.870;4.702;2023-09-07T09:59:17;25.80;99.90
9564;DHT22;4820;50.870;4.702;2023-09-07T10:01:46;25.80;99.90
9564;DHT22;4820;50.870;4.702;2023-09-07T10:04:17;25.90;99.90
9564;DHT22;4820;50.870;4.702;2023-09-07T10:06:58;26.00;99.90
9564;DHT22;4820;50.870;4.702;2023-09-07T10:09:29;26.00;99.90
9564;DHT22;4820;50.870;4.702;2023-09-07T10:11:58;26.20;99.90
9564;DHT22;4820;50.870;4.702;2023-09-07T10:14:25;26.20;99.90
9564;DHT22;4820;50.870;4.702;2023-09-07T10:16:53;26.30;99.90
9564;DHT22;4820;50.870;4.702;2023-09-07T10:19:22;26.30;99.90
9564;DHT22;4820;50.870;4.702;2023-09-07T10:21:49;26.30;99.90
9564;DHT22;4820;50.870;4.702;2023-09-07T10:24:34;26.30;99.90
9564;DHT22;4820;50.870;4.702;2023-09-07T10:27:06;26.30;99.90
9564;DHT22;4820;50.870;4.702;2023-09-07T10:29:46;26.40;99.90
9564;DHT22;4820;50.870;4.702;2023-09-07T10:32:14;26.50;99.90
9564;DHT22;4820;50.870;4.702;2023-09-07T10:34:42;26.50;99.90
9564;DHT22;4820;50.870;4.702;2023-09-07T10:37:14;26.70;99.90
9564;DHT22;4820;50.870;4.702;2023-09-07T10:39:42;26.90;99.90
9564;DHT22;4820;50.870;4.702;2023-09-07T10:42:19;26.90;99.90
9564;DHT22;4820;50.870;4.702;2023-09-07T10:44:45;27.00;99.90
9564;DHT22;4820;50.870;4.702;2023-09-07T10:47:12;27.00;99.90
9564;DHT22;4820;50.870;4.702;2023-09-07T10:49:38;27.10;99.90
9564;DHT22;4820;50.870;4.702;2023-09-07T10:52:05;27.20;99.90
9564;DHT22;4820;50.870;4.702;2023-09-07T10:54:30;27.10;99.90
9564;DHT22;4820;50.870;4.702;2023-09-07T10:56:56;27.10;99.90
9564;DHT22;4820;50.870;4.702;2023-09-07T10:59:27;27.20;99.90
9564;DHT22;4820;50.870;4.702;2023-09-07T11:01:53;27.30;99.90
9564;DHT22;4820;50.870;4.702;2023-09-07T11:04:18;27.30;99.90
9564;DHT22;4820;50.870;4.702;2023-09-07T11:06:45;27.30;99.90
9564;DHT22;4820;50.870;4.702;2023-09-07T11:09:11;27.30;99.90
9564;DHT22;4820;50.870;4.702;2023-09-07T11:11:37;27.30;99.90
9564;DHT22;4820;50.870;4.702;2023-09-07T11:14:04;27.40;99.90
9564;DHT22;4820;50.870;4.702;2023-09-07T11:16:30;27.40;99.90
9564;DHT22;4820;50.870;4.702;2023-09-07T11:19:05;27.40;99.90
9564;DHT22;4820;50.870;4.702;2023-09-07T11:21:32;27.50;99.90
9564;DHT22;4820;50.870;4.702;2023-09-07T11:24:00;27.50;99.90
9564;DHT22;4820;50.870;4.702;2023-09-07T11:26:26;27.60;99.90
9564;DHT22;4820;50.870;4.702;2023-09-07T11:28:52;27.70;99.90
9564;DHT22;4820;50.870;4.702;2023-09-07T11:31:19;27.70;99.90
9564;DHT22;4820;50.870;4.702;2023-09-07T11:33:47;27.80;99.90
9564;DHT22;4820;50.870;4.702;2023-09-07T11:36:14;27.90;99.90
9564;DHT22;4820;50.870;4.702;2023-09-07T11:38:43;28.10;99.90
9564;DHT22;4820;50.870;4.702;2023-09-07T11:41:09;28.00;99.90
9564;DHT22;4820;50.870;4.702;2023-09-07T11:43:35;28.00;99.90
9564;DHT22;4820;50.870;4.702;2023-09-07T11:46:00;28.10;99.90
9564;DHT22;4820;50.870;4.702;2023-09-07T11:48:26;28.20;99.90
9564;DHT22;4820;50.870;4.702;2023-09-07T11:50:54;28.20;99.90
9564;DHT22;4820;50.870;4.702;2023-09-07T11:53:19;28.30;99.90
9564;DHT22;4820;50.870;4.702;2023-09-07T11:55:45;28.30;99.90
9564;DHT22;4820;50.870;4.702;2023-09-07T11:58:11;28.30;99.90
9564;DHT22;4820;50.870;4.702;2023-09-07T12:00:36;28.30;99.90
9564;DHT22;4820;50.870;4.702;2023-09-07T12:03:02;28.30;99.90
9564;DHT22;4820;50.870;4.702;2023-09-07T12:05:28;28.30;99.90
9564;DHT22;4820;50.870;4.702;2023-09-07T12:07:54;28.30;99.90
9564;DHT22;4820;50.870;4.702;2023-09-07T12:10:20;28.30;99.90
9564;DHT22;4820;50.870;4.702;2023-09-07T12:12:46;28.40;99.90
9564;DHT22;4820;50.870;4.702;2023-09-07T12:15:12;28.50;99.90
9564;DHT22;4820;50.870;4.702;2023-09-07T12:17:38;28.50;99.90
9564;DHT22;4820;50.870;4.702;2023-09-07T12:20:04;28.60;99.90
9564;DHT22;4820;50.870;4.702;2023-09-07T12:22:34;28.70;99.90
9564;DHT22;4820;50.870;4.702;2023-09-07T12:25:01;28.70;99.90
9564;DHT22;4820;50.870;4.702;2023-09-07T12:27:27;28.70;99.90
9564;DHT22;4820;50.870;4.702;2023-09-07T12:29:53;28.60;99.90
9564;DHT22;4820;50.870;4.702;2023-09-07T12:32:19;28.60;99.90
9564;DHT22;4820;50.870;4.702;2023-09-07T12:34:44;28.70;99.90
9564;DHT22;4820;50.870;4.702;2023-09-07T12:37:10;28.70;99.90
9564;DHT22;4820;50.870;4.702;2023-09-07T12:39:36;28.60;99.90
9564;DHT22;4820;50.870;4.702;2023-09-07T12:42:01;28.70;99.90
9564;DHT22;4820;50.870;4.702;2023-09-07T12:44:27;28.80;99.90
9564;DHT22;4820;50.870;4.702;2023-09-07T12:46:53;28.90;99.90
9564;DHT22;4820;50.870;4.702;2023-09-07T12:49:18;28.90;99.90
9564;DHT22;4820;50.870;4.702;2023-09-07T12:51:46;29.00;99.90
9564;DHT22;4820;50.870;4.702;2023-09-07T12:54:12;28.90;99.90
9564;DHT22;4820;50.870;4.702;2023-09-07T12:56:38;28.90;99.90
9564;DHT22;4820;50.870;4.702;2023-09-07T12:59:04;29.00;99.90
9564;DHT22;4820;50.870;4.702;2023-09-07T13:01:29;29.00;99.90
9564;DHT22;4820;50.870;4.702;2023-09-07T13:03:56;29.00;99.90
9564;DHT22;4820;50.870;4.702;2023-09-07T13:06:22;29.00;99.90
9564;DHT22;4820;50.870;4.702;2023-09-07T13:08:48;29.00;99.90
9564;DHT22;4820;50.870;4.702;2023-09-07T13:11:13;29.10;99.90
9564;DHT22;4820;50.870;4.702;2023-09-07T13:13:39;29.10;99.90
9564;DHT22;4820;50.870;4.702;2023-09-07T13:16:05;29.10;99.90
9564;DHT22;4820;50.870;4.702;2023-09-07T13:18:31;29.10;99.90
9564;DHT22;4820;50.870;4.702;2023-09-07T13:20:57;29.20;99.90
9564;DHT22;4820;50.870;4.702;2023-09-07T13:23:28;29.20;99.90
9564;DHT22;4820;50.870;4.702;2023-09-07T13:25:55;29.30;99.90
9564;DHT22;4820;50.870;4.702;2023-09-07T13:28:21;29.30;99.90
9564;DHT22;4820;50.870;4.702;2023-09-07T13:30:47;29.30;99.90
9564;DHT22;4820;50.870;4.702;2023-09-07T13:33:13;29.20;99.90
9564;DHT22;4820;50.870;4.702;2023-09-07T13:35:38;29.20;99.90
9564;DHT22;4820;50.870;4.702;2023-09-07T13:38:05;29.10;99.90
9564;DHT22;4820;50.870;4.702;2023-09-07T13:40:31;29.10;99.90
9564;DHT22;4820;50.870;4.702;2023-09-07T13:42:58;29.10;99.90
9564;DHT22;4820;50.870;4.702;2023-09-07T13:45:24;29.10;99.90
9564;DHT22;4820;50.870;4.702;2023-09-07T13:47:50;29.20;99.90
9564;DHT22;4820;50.870;4.702;2023-09-07T13:50:16;29.20;99.90
9564;DHT22;4820;50.870;4.702;2023-09-07T13:52:42;29.30;99.90
9564;DHT22;4820;50.870;4.702;2023-09-07T13:55:07;29.40;99.90
9564;DHT22;4820;50.870;4.702;2023-09-07T13:57:33;29.30;99.90
9564;DHT22;4820;50.870;4.702;2023-09-07T14:00:00;29.20;99.90
9564;DHT22;4820;50.870;4.702;2023-09-07T14:02:26;29.20;99.90
9564;DHT22;4820;50.870;4.702;2023-09-07T14:04:51;29.30;99.90
9564;DHT22;4820;50.870;4.702;2023-09-07T14:07:17;29.30;99.90
9564;DHT22;4820;50.870;4.702;2023-09-07T14:09:44;29.40;99.90
9564;DHT22;4820;50.870;4.702;2023-09-07T14:12:10;29.30;99.90
9564;DHT22;4820;50.870;4.702;2023-09-07T14:14:35;29.30;99.90
9564;DHT22;4820;50.870;4.702;2023-09-07T14:17:02;29.40;99.90
9564;DHT22;4820;50.870;4.702;2023-09-07T14:19:28;29.40;99.90
9564;DHT22;4820;50.870;4.702;2023-09-07T14:21:57;29.20;99.90
9564;DHT22;4820;50.870;4.702;2023-09-07T14:24:23;29.20;99.90
9564;DHT22;4820;50.870;4.702;2023-09-07T14:26:49;29.20;99.90
9564;DHT22;4820;50.870;4.702;2023-09-07T14:29:15;29.30;99.90
9564;DHT22;4820;50.870;4.702;2023-09-07T14:31:42;29.30;99.90
9564;DHT22;4820;50.870;4.702;2023-09-07T14:34:12;29.40;99.90
9564;DHT22;4820;50.870;4.702;2023-09-07T14:36:38;29.40;99.90
9564;DHT22;4820;50.870;4.702;2023-09-07T14:39:07;29.40;99.90
9564;DHT22;4820;50.870;4.702;2023-09-07T14:41:38;29.40;99.90
9564;DHT22;4820;50.870;4.702;2023-09-07T14:44:05;29.40;99.90
9564;DHT22;4820;50.870;4.702;2023-09-07T14:46:31;29.40;99.90
9564;DHT22;4820;50.870;4.702;2023-09-07T14:48:57;29.40;99.90
9564;DHT22;4820;50.870;4.702;2023-09-07T14:51:23;29.30;99.90
9564;DHT22;4820;50.870;4.702;2023-09-07T14:53:49;29.30;99.90
9564;DHT22;4820;50.870;4.702;2023-09-07T14:56:15;29.40;99.90
9564;DHT22;4820;50.870;4.702;2023-09-07T14:58:42;29.30;99.90
9564;DHT22;4820;50.870;4.702;2023-09-07T15:01:08;29.30;99.90
9564;DHT22;4820;50.870;4.702;2023-09-07T15:03:34;29.30;99.90
9564;DHT22;4820;50.870;4.702;2023-09-07T15:06:08;29.20;99.90
9564;DHT22;4820;50.870;4.702;2023-09-07T15:08:38;29.30;99.90
9564;DHT22;4820;50.870;4.702;2023-09-07T15:11:04;29.30;99.90
9564;DHT22;4820;50.870;4.702;2023-09-07T15:13:29;29.30;99.90
9564;DHT22;4820;50.870;4.702;2023-09-07T15:15:55;29.20;99.90
9564;DHT22;4820;50.870;4.702;2023-09-07T15:18:21;29.20;99.90
9564;DHT22;4820;50.870;4.702;2023-09-07T15:20:47;29.30;99.90
9564;DHT22;4820;50.870;4.702;2023-09-07T15:23:13;29.30;99.90
9564;DHT22;4820;50.870;4.702;2023-09-07T15:25:39;29.30;99.90
9564;DHT22;4820;50.870;4.702;2023-09-07T15:28:06;29.20;99.90
9564;DHT22;4820;50.870;4.702;2023-09-07T15:30:35;29.20;99.90
9564;DHT22;4820;50.870;4.702;2023-09-07T15:33:00;29.20;99.90
9564;DHT22;4820;50.870;4.702;2023-09-07T15:35:26;29.20;99.90
9564;DHT22;4820;50.870;4.702;2023-09-07T15:37:52;29.20;99.90
9564;DHT22;4820;50.870;4.702;2023-09-07T15:40:18;29.20;99.90
9564;DHT22;4820;50.870;4.702;2023-09-07T15:42:43;29.20;99.90
9564;DHT22;4820;50.870;4.702;2023-09-07T15:45:09;29.20;99.90
9564;DHT22;4820;50.870;4.702;2023-09-07T15:47:35;29.10;99.90
9564;DHT22;4820;50.870;4.702;2023-09-07T15:50:01;29.20;99.90
9564;DHT22;4820;50.870;4.702;2023-09-07T15:52:28;29.10;99.90
9564;DHT22;4820;50.870;4.702;2023-09-07T15:54:54;29.10;99.90
9564;DHT22;4820;50.870;4.702;2023-09-07T15:57:19;29.10;99.90
9564;DHT22;4820;50.870;4.702;2023-09-07T15:59:45;29.10;99.90